Welcome to Northern Hawkes Bay. New Zealand.
PWS Header
      nz Flag



Hit Counter


W3C Valid W3C Valid logo


    Wairoa

Select any of the Stations below to visit their websites.










Historic Data from Weather Underground
Select the location of interest below. Wairoa is the default. Please have patience, this Data is slow to load in.
Northern Hawkes Bay Historical Data
Daily Summary for January 12, 2017 Units:  Metric    English   Both
« Previous Day
Next Day »
Daily Weekly Monthly Yearly Custom
  High: Low: Average:
Temperature: 30.8 °C 14.4 °C 24 °C
Dew Point: 14.3 °C 7.2 °C 9.9 °C
Humidity: 72% 25% 43%
Wind Speed: 27.0km/h 1.1km/h 11.9km/h
Wind Gust: 45.4km/h - -
Wind- - NW
Pressure: 1010.0 hPa 1002.3 hPa -
Precipitation: 0.0 mm    
Historical Graphs
 
 
Tabular Data for January 12, 2017
Time Temperature Dew Point Pressure Wind Wind Speed Wind Gust Humidity Rainfall Rate (Hourly) solar
00:01 22.0 °C 8.5 °C 1010.0 hPa NNW 15.8 km/h 23.3 km/h 42% 0.0 mm 0 W/m2
00:06 21.9 °C 8.8 °C 1010.0 hPa NNW 13.4 km/h 19.5 km/h 43% 0.0 mm 0 W/m2
00:11 21.8 °C 8.7 °C 1010.0 hPa NNW 9.7 km/h 23.3 km/h 43% 0.0 mm 0 W/m2
00:16 21.7 °C 8.9 °C 1010.0 hPa NNW 11.1 km/h 23.3 km/h 44% 0.0 mm 0 W/m2
00:21 21.6 °C 8.8 °C 1010.0 hPa NNW 9.7 km/h 21.9 km/h 44% 0.0 mm 0 W/m2
00:26 21.5 °C 8.7 °C 1010.0 hPa NW 7.2 km/h 17.2 km/h 44% 0.0 mm 0 W/m2
00:31 21.4 °C 8.7 °C 1010.0 hPa NW 3.5 km/h 14.8 km/h 44% 0.0 mm 0 W/m2
00:36 21.2 °C 8.5 °C 1010.0 hPa NW 1.1 km/h 14.8 km/h 44% 0.0 mm 0 W/m2
00:41 20.9 °C 8.2 °C 1010.0 hPa NNW 2.6 km/h 11.1 km/h 44% 0.0 mm 0 W/m2
00:46 20.6 °C 8.3 °C 1010.0 hPa North 2.6 km/h 7.2 km/h 45% 0.0 mm 0 W/m2
00:51 20.5 °C 8.2 °C 1009.7 hPa NNW 5.0 km/h 9.7 km/h 45% 0.0 mm 0 W/m2
00:56 20.5 °C 8.2 °C 1009.7 hPa NNW 3.5 km/h 9.7 km/h 45% 0.0 mm 0 W/m2
01:01 20.4 °C 8.1 °C 1009.7 hPa NNW 7.2 km/h 12.2 km/h 45% 0.0 mm 0 W/m2
01:06 20.3 °C 8.0 °C 1010.0 hPa NNW 5.0 km/h 12.2 km/h 45% 0.0 mm 0 W/m2
01:11 20.2 °C 8.2 °C 1009.7 hPa NNW 3.5 km/h 12.2 km/h 46% 0.0 mm 0 W/m2
01:16 20.1 °C 8.1 °C 1009.4 hPa North 5.0 km/h 9.7 km/h 46% 0.0 mm 0 W/m2
01:22 20.2 °C 8.2 °C 1009.4 hPa North 6.1 km/h 12.2 km/h 46% 0.0 mm 0 W/m2
01:27 20.0 °C 8.1 °C 1009.4 hPa North 7.2 km/h 12.2 km/h 46% 0.0 mm 0 W/m2
01:32 19.7 °C 8.4 °C 1009.4 hPa North 8.7 km/h 14.8 km/h 48% 0.0 mm 0 W/m2
01:37 19.5 °C 8.2 °C 1009.4 hPa NNW 6.1 km/h 14.8 km/h 48% 0.0 mm 0 W/m2
01:42 19.5 °C 8.2 °C 1009.4 hPa NNW 8.7 km/h 19.5 km/h 48% 0.0 mm 0 W/m2
01:47 19.7 °C 8.1 °C 1009.4 hPa NNW 11.1 km/h 19.5 km/h 47% 0.0 mm 0 W/m2
01:52 19.7 °C 8.1 °C 1009.0 hPa NNW 7.2 km/h 15.8 km/h 47% 0.0 mm 0 W/m2
01:57 19.5 °C 7.9 °C 1008.7 hPa North 5.0 km/h 15.8 km/h 47% 0.0 mm 0 W/m2
02:02 19.4 °C 7.8 °C 1008.7 hPa North 7.2 km/h 13.4 km/h 47% 0.0 mm 0 W/m2
02:07 20.2 °C 7.2 °C 1008.7 hPa NNW 14.8 km/h 24.5 km/h 43% 0.0 mm 0 W/m2
02:12 20.6 °C 7.6 °C 1008.7 hPa NNW 14.8 km/h 24.5 km/h 43% 0.0 mm 0 W/m2
02:17 20.7 °C 7.7 °C 1008.7 hPa NNW 11.1 km/h 27.0 km/h 43% 0.0 mm 0 W/m2
02:22 20.5 °C 7.8 °C 1008.7 hPa NNW 14.8 km/h 27.0 km/h 44% 0.0 mm 0 W/m2
02:27 20.3 °C 8.0 °C 1008.7 hPa NNW 12.2 km/h 25.6 km/h 45% 0.0 mm 0 W/m2
02:32 20.2 °C 8.2 °C 1008.4 hPa NNW 8.7 km/h 21.9 km/h 46% 0.0 mm 0 W/m2
02:37 20.1 °C 8.1 °C 1008.4 hPa NNW 8.7 km/h 20.9 km/h 46% 0.0 mm 0 W/m2
02:42 20.0 °C 8.3 °C 1008.4 hPa NNW 13.4 km/h 20.9 km/h 47% 0.0 mm 0 W/m2
02:47 20.0 °C 8.3 °C 1008.4 hPa NNW 12.2 km/h 24.5 km/h 47% 0.0 mm 0 W/m2
02:52 19.9 °C 8.6 °C 1008.4 hPa NNW 13.4 km/h 24.5 km/h 48% 0.0 mm 0 W/m2
02:57 19.8 °C 8.8 °C 1008.4 hPa North 11.1 km/h 20.9 km/h 49% 0.0 mm 0 W/m2
03:02 19.9 °C 9.2 °C 1008.0 hPa NNW 12.2 km/h 20.9 km/h 50% 0.0 mm 0 W/m2
03:07 19.9 °C 9.2 °C 1008.0 hPa North 12.2 km/h 23.3 km/h 50% 0.0 mm 0 W/m2
03:12 19.9 °C 8.9 °C 1008.0 hPa North 13.4 km/h 23.3 km/h 49% 0.0 mm 0 W/m2
03:17 19.9 °C 8.9 °C 1008.0 hPa NNW 9.7 km/h 21.9 km/h 49% 0.0 mm 0 W/m2
03:22 19.8 °C 9.1 °C 1008.0 hPa NW 15.8 km/h 25.6 km/h 50% 0.0 mm 0 W/m2
03:27 19.9 °C 8.9 °C 1008.0 hPa NW 13.4 km/h 25.6 km/h 49% 0.0 mm 0 W/m2
03:32 19.9 °C 8.9 °C 1008.0 hPa NNW 9.7 km/h 21.9 km/h 49% 0.0 mm 0 W/m2
03:37 19.8 °C 8.8 °C 1008.0 hPa North 7.2 km/h 18.3 km/h 49% 0.0 mm 0 W/m2
03:42 19.8 °C 8.8 °C 1008.0 hPa NNE 5.0 km/h 13.4 km/h 49% 0.0 mm 0 W/m2
03:47 19.7 °C 8.7 °C 1007.7 hPa North 2.6 km/h 12.2 km/h 49% 0.0 mm 0 W/m2
03:52 19.5 °C 8.5 °C 1008.0 hPa NNW 2.6 km/h 8.7 km/h 49% 0.0 mm 0 W/m2
03:57 19.4 °C 8.7 °C 1008.0 hPa NNW 2.6 km/h 7.2 km/h 50% 0.0 mm 0 W/m2
04:02 19.2 °C 8.6 °C 1008.0 hPa NNW 3.5 km/h 6.1 km/h 50% 0.0 mm 0 W/m2
04:07 18.7 °C 8.9 °C 1007.7 hPa NNW 2.6 km/h 7.2 km/h 53% 0.0 mm 0 W/m2
04:12 18.5 °C 9.0 °C 1007.7 hPa NW 2.6 km/h 7.2 km/h 54% 0.0 mm 0 W/m2
04:17 18.3 °C 9.1 °C 1007.7 hPa NW 2.6 km/h 6.1 km/h 55% 0.0 mm 0 W/m2
04:22 18.0 °C 8.8 °C 1007.7 hPa NW 3.5 km/h 6.1 km/h 55% 0.0 mm 0 W/m2
04:27 17.7 °C 8.8 °C 1007.7 hPa NW 3.5 km/h 6.1 km/h 56% 0.0 mm 0 W/m2
04:32 17.4 °C 9.1 °C 1007.3 hPa NNW 5.0 km/h 7.2 km/h 58% 0.0 mm 0 W/m2
04:37 17.2 °C 8.9 °C 1007.3 hPa NW 5.0 km/h 7.2 km/h 58% 0.0 mm 0 W/m2
04:42 16.8 °C 9.2 °C 1007.3 hPa NW 1.1 km/h 7.2 km/h 61% 0.0 mm 0 W/m2
04:47 16.6 °C 9.3 °C 1007.3 hPa NNW 5.0 km/h 7.2 km/h 62% 0.0 mm 0 W/m2
04:52 16.3 °C 9.5 °C 1007.3 hPa NNW 2.6 km/h 7.2 km/h 64% 0.0 mm 0 W/m2
04:57 16.0 °C 9.2 °C 1007.3 hPa NW 1.1 km/h 7.2 km/h 64% 0.0 mm 0 W/m2
05:02 15.8 °C 9.7 °C 1007.3 hPa NNW 2.6 km/h 5.0 km/h 67% 0.0 mm 0 W/m2
05:07 15.7 °C 9.8 °C 1007.3 hPa NNW 2.6 km/h 6.1 km/h 68% 0.0 mm 0 W/m2
05:12 15.6 °C 9.7 °C 1007.3 hPa NW 1.1 km/h 6.1 km/h 68% 0.0 mm 0 W/m2
05:17 15.5 °C 9.6 °C 1007.3 hPa NW 1.1 km/h 5.0 km/h 68% 0.0 mm 0 W/m2
05:22 15.4 °C 9.6 °C 1007.3 hPa NW 3.5 km/h 6.1 km/h 68% 0.0 mm 0 W/m2
05:27 15.4 °C 9.6 °C 1007.3 hPa NW 5.0 km/h 6.1 km/h 68% 0.0 mm 0 W/m2
05:32 15.3 °C 9.4 °C 1007.3 hPa NNW 5.0 km/h 7.2 km/h 68% 0.0 mm 0 W/m2
05:37 15.2 °C 9.6 °C 1007.3 hPa NNW 6.1 km/h 8.7 km/h 69% 0.0 mm 0 W/m2
05:43 15.2 °C 9.6 °C 1007.0 hPa NNW 3.5 km/h 8.7 km/h 69% 0.0 mm 0 W/m2
05:48 15.1 °C 9.4 °C 1007.0 hPa NNW 2.6 km/h 8.7 km/h 69% 0.0 mm 0 W/m2
05:53 15.0 °C 9.4 °C 1007.0 hPa NNW 1.1 km/h 6.1 km/h 69% 0.0 mm 1 W/m2
05:58 14.9 °C 9.5 °C 1007.0 hPa NNW 2.6 km/h 7.2 km/h 70% 0.0 mm 3 W/m2
06:03 14.8 °C 9.6 °C 1007.0 hPa North 2.6 km/h 7.2 km/h 71% 0.0 mm 6 W/m2
06:08 14.7 °C 9.5 °C 1007.0 hPa North 2.6 km/h 6.1 km/h 71% 0.0 mm 9 W/m2
06:13 14.5 °C 9.3 °C 1007.0 hPa North 3.5 km/h 6.1 km/h 71% 0.0 mm 12 W/m2
06:18 14.4 °C 9.4 °C 1007.0 hPa NNW 1.1 km/h 6.1 km/h 72% 0.0 mm 14 W/m2
06:23 14.4 °C 9.4 °C 1007.0 hPa NNW 2.6 km/h 6.1 km/h 72% 0.0 mm 17 W/m2
06:28 14.5 °C 9.3 °C 1007.0 hPa NW 2.6 km/h 5.0 km/h 71% 0.0 mm 22 W/m2
06:33 14.8 °C 9.4 °C 1006.7 hPa NW 3.5 km/h 6.1 km/h 70% 0.0 mm 24 W/m2
06:38 15.0 °C 9.2 °C 1007.0 hPa NNW 3.5 km/h 6.1 km/h 68% 0.0 mm 43 W/m2
06:43 15.5 °C 9.4 °C 1006.7 hPa NNW 3.5 km/h 6.1 km/h 67% 0.0 mm 58 W/m2
06:48 16.1 °C 9.5 °C 1006.7 hPa NNW 2.6 km/h 6.1 km/h 65% 0.0 mm 67 W/m2
06:53 16.8 °C 9.9 °C 1007.0 hPa NNW 1.1 km/h 6.1 km/h 64% 0.0 mm 77 W/m2
06:58 17.2 °C 9.6 °C 1007.0 hPa NNW 2.6 km/h 7.2 km/h 61% 0.0 mm 87 W/m2
07:03 17.9 °C 9.8 °C 1007.0 hPa NNW 2.6 km/h 7.2 km/h 59% 0.0 mm 97 W/m2
07:08 18.5 °C 10.1 °C 1007.0 hPa NW 1.1 km/h 5.0 km/h 58% 0.0 mm 109 W/m2
07:13 19.1 °C 9.6 °C 1007.0 hPa NW 3.5 km/h 7.2 km/h 54% 0.0 mm 123 W/m2
07:18 19.7 °C 9.6 °C 1007.0 hPa NW 3.5 km/h 8.7 km/h 52% 0.0 mm 138 W/m2
07:23 20.3 °C 8.9 °C 1007.3 hPa NNW 2.6 km/h 8.7 km/h 48% 0.0 mm 152 W/m2
07:28 20.8 °C 9.1 °C 1007.0 hPa NNW 3.5 km/h 8.7 km/h 47% 0.0 mm 166 W/m2
07:33 21.3 °C 8.9 °C 1007.0 hPa NNW 3.5 km/h 7.2 km/h 45% 0.0 mm 180 W/m2
07:38 21.8 °C 8.7 °C 1007.0 hPa NNW 3.5 km/h 7.2 km/h 43% 0.0 mm 193 W/m2
07:43 22.4 °C 8.9 °C 1007.0 hPa NNW 2.6 km/h 7.2 km/h 42% 0.0 mm 207 W/m2
07:48 23.0 °C 9.1 °C 1007.3 hPa NNW 5.0 km/h 7.2 km/h 41% 0.0 mm 220 W/m2
07:53 23.3 °C 8.9 °C 1007.0 hPa NNW 3.5 km/h 9.7 km/h 40% 0.0 mm 235 W/m2
07:58 23.1 °C 9.2 °C 1007.0 hPa NNW 6.1 km/h 9.7 km/h 41% 0.0 mm 248 W/m2
08:03 22.7 °C 8.8 °C 1007.0 hPa NW 3.5 km/h 12.2 km/h 41% 0.0 mm 261 W/m2
08:08 22.8 °C 8.9 °C 1007.0 hPa NW 8.7 km/h 15.8 km/h 41% 0.0 mm 276 W/m2
08:13 23.1 °C 8.4 °C 1007.3 hPa NW 13.4 km/h 20.9 km/h 39% 0.0 mm 307 W/m2
08:18 23.4 °C 8.3 °C 1007.3 hPa NW 8.7 km/h 20.9 km/h 38% 0.0 mm 305 W/m2
08:23 23.5 °C 7.6 °C 1007.3 hPa WNW 11.1 km/h 23.3 km/h 36% 0.0 mm 328 W/m2
08:28 23.5 °C 8.0 °C 1007.0 hPa NW 9.7 km/h 29.4 km/h 37% 0.0 mm 336 W/m2
08:33 23.5 °C 7.6 °C 1007.3 hPa NW 13.4 km/h 34.3 km/h 36% 0.0 mm 354 W/m2
08:38 23.7 °C 8.2 °C 1007.3 hPa NW 11.1 km/h 34.3 km/h 37% 0.0 mm 370 W/m2
08:43 24.2 °C 7.8 °C 1007.3 hPa NW 14.8 km/h 24.5 km/h 35% 0.0 mm 388 W/m2
08:48 24.2 °C 7.8 °C 1007.0 hPa NW 17.2 km/h 28.0 km/h 35% 0.0 mm 409 W/m2
08:53 24.1 °C 8.1 °C 1007.0 hPa NW 13.4 km/h 31.7 km/h 36% 0.0 mm 425 W/m2
08:58 24.3 °C 7.4 °C 1007.0 hPa NW 14.8 km/h 31.7 km/h 34% 0.0 mm 440 W/m2
09:03 24.5 °C 8.4 °C 1007.3 hPa NW 12.2 km/h 28.0 km/h 36% 0.0 mm 459 W/m2
09:08 24.8 °C 8.3 °C 1007.3 hPa NW 7.2 km/h 18.3 km/h 35% 0.0 mm 480 W/m2
09:13 24.9 °C 8.4 °C 1007.0 hPa NW 11.1 km/h 19.5 km/h 35% 0.0 mm 496 W/m2
09:18 24.7 °C 8.2 °C 1007.3 hPa NNW 15.8 km/h 23.3 km/h 35% 0.0 mm 519 W/m2
09:23 24.7 °C 7.8 °C 1007.0 hPa NNW 24.5 km/h 29.4 km/h 34% 0.0 mm 552 W/m2
09:28 24.9 °C 8.8 °C 1007.0 hPa NNW 12.2 km/h 29.4 km/h 36% 0.0 mm 555 W/m2
09:33 25.1 °C 8.2 °C 1006.7 hPa NW 12.2 km/h 29.4 km/h 34% 0.0 mm 575 W/m2
09:38 25.1 °C 8.2 °C 1007.0 hPa NW 12.2 km/h 28.0 km/h 34% 0.0 mm 601 W/m2
09:43 25.4 °C 8.8 °C 1006.7 hPa NW 5.0 km/h 24.5 km/h 35% 0.0 mm 615 W/m2
09:48 25.4 °C 8.0 °C 1007.0 hPa WNW 12.2 km/h 31.7 km/h 33% 0.0 mm 646 W/m2
09:53 25.3 °C 8.3 °C 1007.0 hPa WNW 15.8 km/h 31.7 km/h 34% 0.0 mm 650 W/m2
09:58 25.4 °C 8.4 °C 1007.0 hPa NW 14.8 km/h 28.0 km/h 34% 0.0 mm 679 W/m2
10:03 25.8 °C 8.8 °C 1006.7 hPa NW 18.3 km/h 27.0 km/h 34% 0.0 mm 715 W/m2
10:08 25.7 °C 8.7 °C 1006.7 hPa NNW 19.5 km/h 37.8 km/h 34% 0.0 mm 741 W/m2
10:13 25.6 °C 8.2 °C 1006.7 hPa NW 15.8 km/h 37.8 km/h 33% 0.0 mm 745 W/m2
10:18 25.5 °C 8.5 °C 1006.7 hPa NW 20.9 km/h 34.3 km/h 34% 0.0 mm 760 W/m2
10:23 25.6 °C 8.2 °C 1006.7 hPa WNW 18.3 km/h 35.6 km/h 33% 0.0 mm 790 W/m2
10:28 25.8 °C 8.8 °C 1006.3 hPa NW 15.8 km/h 35.6 km/h 34% 0.0 mm 801 W/m2
10:33 25.8 °C 8.8 °C 1006.7 hPa NNW 14.8 km/h 37.8 km/h 34% 0.0 mm 811 W/m2
10:38 25.8 °C 8.8 °C 1006.7 hPa NW 20.9 km/h 37.8 km/h 34% 0.0 mm 824 W/m2
10:44 26.2 °C 8.7 °C 1006.3 hPa NW 9.7 km/h 29.4 km/h 33% 0.0 mm 842 W/m2
10:49 26.3 °C 8.8 °C 1006.3 hPa NNW 19.5 km/h 25.6 km/h 33% 0.0 mm 854 W/m2
10:54 26.4 °C 8.8 °C 1006.3 hPa NNW 18.3 km/h 27.0 km/h 33% 0.0 mm 863 W/m2
10:59 26.2 °C 9.1 °C 1006.3 hPa NW 12.2 km/h 27.0 km/h 34% 0.0 mm 872 W/m2
11:04 26.2 °C 8.7 °C 1006.3 hPa NW 13.4 km/h 27.0 km/h 33% 0.0 mm 880 W/m2
11:09 26.4 °C 9.3 °C 1006.3 hPa NNW 9.7 km/h 27.0 km/h 34% 0.0 mm 889 W/m2
11:14 26.8 °C 9.7 °C 1006.3 hPa NNW 11.1 km/h 25.6 km/h 34% 0.0 mm 907 W/m2
11:19 27.4 °C 9.3 °C 1006.3 hPa WNW 15.8 km/h 20.9 km/h 32% 0.0 mm 924 W/m2
11:24 27.2 °C 8.6 °C 1006.3 hPa NW 9.7 km/h 20.9 km/h 31% 0.0 mm 930 W/m2
11:29 27.3 °C 8.7 °C 1006.3 hPa NW 7.2 km/h 20.9 km/h 31% 0.0 mm 938 W/m2
11:34 27.8 °C 9.2 °C 1006.3 hPa WNW 11.1 km/h 20.9 km/h 31% 0.0 mm 953 W/m2
11:39 27.7 °C 9.1 °C 1006.3 hPa NW 8.7 km/h 23.3 km/h 31% 0.0 mm 955 W/m2
11:44 27.9 °C 9.7 °C 1006.7 hPa WNW 12.2 km/h 23.3 km/h 32% 0.0 mm 963 W/m2
11:49 28.0 °C 10.3 °C 1006.3 hPa WNW 18.3 km/h 27.0 km/h 33% 0.0 mm 965 W/m2
11:54 28.1 °C 9.4 °C 1006.0 hPa WNW 13.4 km/h 28.0 km/h 31% 0.0 mm 969 W/m2
11:59 28.1 °C 8.4 °C 1006.0 hPa WNW 21.9 km/h 29.4 km/h 29% 0.0 mm 966 W/m2
12:04 28.0 °C 9.3 °C 1006.0 hPa NW 6.1 km/h 29.4 km/h 31% 0.0 mm 975 W/m2
12:09 28.5 °C 9.8 °C 1005.6 hPa NW 6.1 km/h 29.4 km/h 31% 0.0 mm 982 W/m2
12:14 28.9 °C 9.6 °C 1005.6 hPa NW 12.2 km/h 28.0 km/h 30% 0.0 mm 988 W/m2
12:19 28.7 °C 9.9 °C 1005.6 hPa WNW 8.7 km/h 28.0 km/h 31% 0.0 mm 990 W/m2
12:24 28.7 °C 9.9 °C 1005.6 hPa NNW 8.7 km/h 28.0 km/h 31% 0.0 mm 990 W/m2
12:29 28.5 °C 10.7 °C 1005.6 hPa North 12.2 km/h 28.0 km/h 33% 0.0 mm 986 W/m2
12:34 28.5 °C 10.2 °C 1005.6 hPa North 15.8 km/h 27.0 km/h 32% 0.0 mm 983 W/m2
12:39 28.6 °C 10.3 °C 1005.6 hPa NNW 13.4 km/h 27.0 km/h 32% 0.0 mm 980 W/m2
12:44 28.6 °C 10.3 °C 1005.6 hPa NNW 13.4 km/h 25.6 km/h 32% 0.0 mm 980 W/m2
12:49 28.9 °C 10.1 °C 1005.6 hPa NNW 15.8 km/h 28.0 km/h 31% 0.0 mm 981 W/m2
12:54 28.7 °C 9.9 °C 1005.6 hPa NNW 13.4 km/h 28.0 km/h 31% 0.0 mm 977 W/m2
12:59 28.7 °C 9.9 °C 1005.3 hPa North 14.8 km/h 27.0 km/h 31% 0.0 mm 971 W/m2
13:04 28.5 °C 9.8 °C 1005.3 hPa North 9.7 km/h 30.6 km/h 31% 0.0 mm 971 W/m2
13:09 28.4 °C 10.2 °C 1005.3 hPa North 13.4 km/h 30.6 km/h 32% 0.0 mm 969 W/m2
13:14 28.4 °C 10.6 °C 1005.3 hPa NNW 20.9 km/h 30.6 km/h 33% 0.0 mm 967 W/m2
13:19 28.9 °C 11.1 °C 1005.3 hPa NNW 19.5 km/h 30.6 km/h 33% 0.0 mm 968 W/m2
13:24 29.1 °C 11.2 °C 1005.0 hPa North 19.5 km/h 30.6 km/h 33% 0.0 mm 961 W/m2
13:29 28.9 °C 10.6 °C 1005.0 hPa NNW 12.2 km/h 30.6 km/h 32% 0.0 mm 962 W/m2
13:34 29.1 °C 9.8 °C 1005.0 hPa NNW 14.8 km/h 29.4 km/h 30% 0.0 mm 956 W/m2
13:39 29.6 °C 10.2 °C 1004.6 hPa NNW 17.2 km/h 29.4 km/h 30% 0.0 mm 958 W/m2
13:44 29.8 °C 10.4 °C 1005.0 hPa NNW 12.2 km/h 28.0 km/h 30% 0.0 mm 954 W/m2
13:49 29.9 °C 9.9 °C 1004.6 hPa NNW 15.8 km/h 28.0 km/h 29% 0.0 mm 957 W/m2
13:54 30.1 °C 8.5 °C 1004.6 hPa NNW 12.2 km/h 25.6 km/h 26% 0.0 mm 953 W/m2
14:00 29.8 °C 8.3 °C 1004.6 hPa NNW 12.2 km/h 31.7 km/h 26% 0.0 mm 944 W/m2
14:05 30.0 °C 8.4 °C 1004.6 hPa NW 11.1 km/h 31.7 km/h 26% 0.0 mm 940 W/m2
14:22 30.2 °C 9.2 °C 1004.6 hPa NNW 12.2 km/h 34.3 km/h 27% 0.0 mm 921 W/m2
14:27 30.0 °C 8.4 °C 1004.6 hPa NNW 12.2 km/h 31.7 km/h 26% 0.0 mm 909 W/m2
14:32 29.9 °C 8.9 °C 1004.6 hPa NNW 21.9 km/h 31.7 km/h 27% 0.0 mm 899 W/m2
14:37 29.6 °C 9.2 °C 1004.3 hPa NNW 14.8 km/h 33.1 km/h 28% 0.0 mm 889 W/m2
14:42 29.9 °C 9.9 °C 1004.3 hPa NW 14.8 km/h 33.1 km/h 29% 0.0 mm 886 W/m2
14:47 30.0 °C 9.0 °C 1003.9 hPa NW 13.4 km/h 29.4 km/h 27% 0.0 mm 880 W/m2
14:52 29.8 °C 9.3 °C 1004.3 hPa NW 21.9 km/h 31.7 km/h 28% 0.0 mm 870 W/m2
14:57 30.1 °C 9.1 °C 1003.9 hPa NW 20.9 km/h 33.1 km/h 27% 0.0 mm 866 W/m2
15:02 30.2 °C 9.7 °C 1004.3 hPa NW 18.3 km/h 33.1 km/h 28% 0.0 mm 853 W/m2
15:07 30.3 °C 9.8 °C 1004.3 hPa NNW 14.8 km/h 31.7 km/h 28% 0.0 mm 845 W/m2
15:12 30.4 °C 9.9 °C 1003.9 hPa NNW 12.2 km/h 30.6 km/h 28% 0.0 mm 761 W/m2
15:17 30.1 °C 8.5 °C 1003.9 hPa NNW 17.2 km/h 30.6 km/h 26% 0.0 mm 832 W/m2
15:22 30.0 °C 9.0 °C 1003.9 hPa NNW 23.3 km/h 37.8 km/h 27% 0.0 mm 805 W/m2
15:27 29.9 °C 9.4 °C 1003.9 hPa NNW 21.9 km/h 37.8 km/h 28% 0.0 mm 801 W/m2
15:32 30.1 °C 9.1 °C 1003.9 hPa NW 15.8 km/h 35.6 km/h 27% 0.0 mm 783 W/m2
15:37 30.4 °C 9.3 °C 1003.6 hPa NW 17.2 km/h 35.6 km/h 27% 0.0 mm 779 W/m2
15:42 30.3 °C 9.8 °C 1003.6 hPa NW 14.8 km/h 34.3 km/h 28% 0.0 mm 770 W/m2
15:47 30.3 °C 9.8 °C 1003.6 hPa NNW 9.7 km/h 34.3 km/h 28% 0.0 mm 756 W/m2
15:52 30.1 °C 8.5 °C 1003.3 hPa NNW 21.9 km/h 35.6 km/h 26% 0.0 mm 736 W/m2
15:57 30.1 °C 9.1 °C 1003.3 hPa NW 21.9 km/h 36.7 km/h 27% 0.0 mm 734 W/m2
16:02 30.1 °C 9.1 °C 1003.3 hPa NW 15.8 km/h 39.3 km/h 27% 0.0 mm 723 W/m2
16:07 30.4 °C 8.8 °C 1003.3 hPa NW 19.5 km/h 39.3 km/h 26% 0.0 mm 714 W/m2
16:12 30.2 °C 8.0 °C 1003.3 hPa NNW 21.9 km/h 34.3 km/h 25% 0.0 mm 699 W/m2
16:17 30.0 °C 7.8 °C 1003.3 hPa NNW 20.9 km/h 41.7 km/h 25% 0.0 mm 677 W/m2
16:22 30.1 °C 7.9 °C 1003.3 hPa NW 15.8 km/h 41.7 km/h 25% 0.0 mm 671 W/m2
16:27 30.0 °C 7.8 °C 1002.9 hPa NW 19.5 km/h 42.8 km/h 25% 0.0 mm 661 W/m2
16:32 30.3 °C 8.1 °C 1002.9 hPa WNW 21.9 km/h 42.8 km/h 25% 0.0 mm 642 W/m2
16:37 30.5 °C 8.3 °C 1002.9 hPa NW 25.6 km/h 36.7 km/h 25% 0.0 mm 632 W/m2
16:42 30.4 °C 8.2 °C 1002.9 hPa NW 18.3 km/h 36.7 km/h 25% 0.0 mm 615 W/m2
16:47 30.8 °C 8.5 °C 1002.9 hPa NW 20.9 km/h 36.7 km/h 25% 0.0 mm 595 W/m2
16:52 30.5 °C 8.3 °C 1002.9 hPa NW 14.8 km/h 33.1 km/h 25% 0.0 mm 586 W/m2
16:57 30.4 °C 8.2 °C 1002.9 hPa WNW 24.5 km/h 45.4 km/h 25% 0.0 mm 568 W/m2
17:02 30.3 °C 8.7 °C 1002.9 hPa NW 19.5 km/h 45.4 km/h 26% 0.0 mm 555 W/m2
17:07 29.9 °C 8.9 °C 1002.9 hPa NW 23.3 km/h 35.6 km/h 27% 0.0 mm 527 W/m2
17:13 30.0 °C 9.0 °C 1002.9 hPa WNW 13.4 km/h 35.6 km/h 27% 0.0 mm 524 W/m2
17:18 29.7 °C 9.3 °C 1002.6 hPa NW 18.3 km/h 41.7 km/h 28% 0.0 mm 494 W/m2
17:23 29.6 °C 9.2 °C 1002.6 hPa NW 23.3 km/h 41.7 km/h 28% 0.0 mm 497 W/m2
17:28 29.8 °C 9.3 °C 1002.6 hPa NW 20.9 km/h 39.3 km/h 28% 0.0 mm 479 W/m2
17:33 29.7 °C 9.3 °C 1002.6 hPa NNW 27.0 km/h 39.3 km/h 28% 0.0 mm 456 W/m2
17:38 29.6 °C 9.2 °C 1002.3 hPa NNW 23.3 km/h 39.3 km/h 28% 0.0 mm 439 W/m2
17:43 29.6 °C 9.7 °C 1002.3 hPa NW 23.3 km/h 39.3 km/h 29% 0.0 mm 432 W/m2
17:48 29.6 °C 9.7 °C 1002.6 hPa NW 14.8 km/h 35.6 km/h 29% 0.0 mm 416 W/m2
17:53 29.4 °C 10.1 °C 1002.9 hPa NNW 20.9 km/h 35.6 km/h 30% 0.0 mm 396 W/m2
17:58 29.2 °C 9.9 °C 1002.6 hPa NW 23.3 km/h 36.7 km/h 30% 0.0 mm 380 W/m2
18:03 29.3 °C 10.4 °C 1002.9 hPa NNW 21.9 km/h 36.7 km/h 31% 0.0 mm 347 W/m2
18:08 29.0 °C 10.7 °C 1002.6 hPa NNW 12.2 km/h 34.3 km/h 32% 0.0 mm 336 W/m2
18:13 28.7 °C 11.3 °C 1002.6 hPa NNW 12.2 km/h 36.7 km/h 34% 0.0 mm 321 W/m2
18:18 28.7 °C 11.3 °C 1002.6 hPa NW 14.8 km/h 36.7 km/h 34% 0.0 mm 325 W/m2
18:23 29.0 °C 11.1 °C 1002.6 hPa NW 17.2 km/h 28.0 km/h 33% 0.0 mm 245 W/m2
18:28 29.0 °C 11.6 °C 1002.6 hPa NW 12.2 km/h 29.4 km/h 34% 0.0 mm 298 W/m2
18:33 29.0 °C 11.1 °C 1002.9 hPa NW 18.3 km/h 29.4 km/h 33% 0.0 mm 286 W/m2
18:38 28.7 °C 11.8 °C 1002.9 hPa NW 17.2 km/h 29.4 km/h 35% 0.0 mm 264 W/m2
18:43 28.9 °C 11.9 °C 1002.6 hPa NW 13.4 km/h 29.4 km/h 35% 0.0 mm 260 W/m2
18:48 28.7 °C 11.8 °C 1002.9 hPa NW 18.3 km/h 28.0 km/h 35% 0.0 mm 251 W/m2
18:53 28.6 °C 11.7 °C 1002.9 hPa NW 19.5 km/h 33.1 km/h 35% 0.0 mm 236 W/m2
18:58 28.3 °C 11.8 °C 1002.9 hPa NW 18.3 km/h 33.1 km/h 36% 0.0 mm 224 W/m2
19:03 27.9 °C 10.6 °C 1002.9 hPa NW 17.2 km/h 35.6 km/h 34% 0.0 mm 212 W/m2
19:08 27.8 °C 10.5 °C 1002.9 hPa NW 19.5 km/h 35.6 km/h 34% 0.0 mm 204 W/m2
19:13 27.7 °C 10.9 °C 1002.9 hPa NW 14.8 km/h 29.4 km/h 35% 0.0 mm 164 W/m2
19:18 27.6 °C 11.2 °C 1002.9 hPa NW 15.8 km/h 28.0 km/h 36% 0.0 mm 183 W/m2
19:23 27.5 °C 11.1 °C 1003.3 hPa NW 18.3 km/h 30.6 km/h 36% 0.0 mm 176 W/m2
19:28 27.2 °C 11.3 °C 1003.3 hPa NW 14.8 km/h 30.6 km/h 37% 0.0 mm 151 W/m2
19:33 26.9 °C 11.8 °C 1003.3 hPa NW 20.9 km/h 30.6 km/h 39% 0.0 mm 109 W/m2
19:38 26.7 °C 12.0 °C 1003.3 hPa NW 14.8 km/h 30.6 km/h 40% 0.0 mm 136 W/m2
19:43 26.8 °C 12.4 °C 1003.3 hPa NW 11.1 km/h 30.6 km/h 41% 0.0 mm 78 W/m2
19:48 26.3 °C 12.4 °C 1003.3 hPa NW 12.2 km/h 34.3 km/h 42% 0.0 mm 110 W/m2
19:53 26.0 °C 12.1 °C 1003.3 hPa NW 18.3 km/h 34.3 km/h 42% 0.0 mm 35 W/m2
19:58 25.6 °C 12.4 °C 1003.6 hPa NW 15.8 km/h 27.0 km/h 44% 0.0 mm 37 W/m2
20:03 25.7 °C 12.6 °C 1003.3 hPa NW 14.8 km/h 25.6 km/h 44% 0.0 mm 56 W/m2
20:08 25.7 °C 12.6 °C 1003.6 hPa WNW 11.1 km/h 28.0 km/h 44% 0.0 mm 59 W/m2
20:13 25.7 °C 12.9 °C 1003.6 hPa NW 11.1 km/h 28.0 km/h 45% 0.0 mm 37 W/m2
20:18 25.2 °C 12.4 °C 1003.6 hPa NNW 11.1 km/h 21.9 km/h 45% 0.0 mm 16 W/m2
20:23 24.8 °C 12.7 °C 1003.9 hPa NW 20.9 km/h 34.3 km/h 47% 0.0 mm 12 W/m2
20:28 24.6 °C 12.9 °C 1003.6 hPa NW 12.2 km/h 40.4 km/h 48% 0.0 mm 8 W/m2
20:33 24.4 °C 13.0 °C 1003.6 hPa NW 12.2 km/h 40.4 km/h 49% 0.0 mm 4 W/m2
20:38 24.2 °C 12.8 °C 1003.9 hPa NW 11.1 km/h 29.4 km/h 49% 0.0 mm 2 W/m2
20:43 24.0 °C 12.9 °C 1003.6 hPa NW 15.8 km/h 25.6 km/h 50% 0.0 mm 0 W/m2
20:48 23.9 °C 13.2 °C 1003.9 hPa NW 12.2 km/h 27.0 km/h 51% 0.0 mm 0 W/m2
20:53 23.7 °C 13.0 °C 1003.9 hPa NNW 11.1 km/h 30.6 km/h 51% 0.0 mm 0 W/m2
20:58 23.7 °C 13.3 °C 1003.9 hPa NNW 12.2 km/h 30.6 km/h 52% 0.0 mm 0 W/m2
21:03 23.5 °C 13.1 °C 1003.9 hPa NNW 12.2 km/h 24.5 km/h 52% 0.0 mm 0 W/m2
21:08 23.4 °C 13.3 °C 1003.9 hPa NNW 18.3 km/h 25.6 km/h 53% 0.0 mm 0 W/m2
21:13 23.3 °C 13.2 °C 1004.3 hPa NNW 8.7 km/h 25.6 km/h 53% 0.0 mm 0 W/m2
21:18 23.2 °C 13.4 °C 1003.9 hPa NNW 11.1 km/h 21.9 km/h 54% 0.0 mm 0 W/m2
21:23 23.0 °C 13.2 °C 1004.3 hPa NNW 12.2 km/h 21.9 km/h 54% 0.0 mm 0 W/m2
21:28 23.0 °C 13.2 °C 1004.3 hPa NW 7.2 km/h 21.9 km/h 54% 0.0 mm 0 W/m2
21:33 22.9 °C 13.1 °C 1004.3 hPa NW 8.7 km/h 21.9 km/h 54% 0.0 mm 0 W/m2
21:38 22.8 °C 13.0 °C 1004.6 hPa NW 12.2 km/h 21.9 km/h 54% 0.0 mm 0 W/m2
21:43 22.8 °C 13.0 °C 1004.3 hPa NW 6.1 km/h 23.3 km/h 54% 0.0 mm 0 W/m2
21:48 22.7 °C 13.2 °C 1004.6 hPa NW 9.7 km/h 23.3 km/h 55% 0.0 mm 0 W/m2
21:53 22.6 °C 13.1 °C 1005.0 hPa NNW 8.7 km/h 23.3 km/h 55% 0.0 mm 0 W/m2
21:58 22.5 °C 13.0 °C 1004.6 hPa NNW 14.8 km/h 17.2 km/h 55% 0.0 mm 0 W/m2
22:03 22.5 °C 13.3 °C 1005.0 hPa NW 7.2 km/h 27.0 km/h 56% 0.0 mm 0 W/m2
22:08 22.4 °C 13.2 °C 1004.6 hPa NNW 12.2 km/h 27.0 km/h 56% 0.0 mm 0 W/m2
22:13 22.3 °C 13.1 °C 1004.6 hPa NNW 13.4 km/h 21.9 km/h 56% 0.0 mm 0 W/m2
22:18 22.2 °C 13.3 °C 1004.6 hPa NNW 13.4 km/h 19.5 km/h 57% 0.0 mm 0 W/m2
22:23 22.3 °C 13.4 °C 1004.6 hPa NNW 13.4 km/h 30.6 km/h 57% 0.0 mm 0 W/m2
22:28 22.2 °C 13.3 °C 1004.6 hPa NNW 15.8 km/h 30.6 km/h 57% 0.0 mm 0 W/m2
22:33 22.2 °C 13.3 °C 1004.6 hPa NNW 12.2 km/h 27.0 km/h 57% 0.0 mm 0 W/m2
22:38 22.1 °C 13.2 °C 1004.3 hPa NNW 11.1 km/h 23.3 km/h 57% 0.0 mm 0 W/m2
22:43 22.0 °C 13.1 °C 1004.6 hPa North 15.8 km/h 21.9 km/h 57% 0.0 mm 0 W/m2
22:48 22.0 °C 13.1 °C 1004.6 hPa North 13.4 km/h 21.9 km/h 57% 0.0 mm 0 W/m2
22:53 21.9 °C 13.6 °C 1004.6 hPa North 12.2 km/h 21.9 km/h 59% 0.0 mm 0 W/m2
22:58 21.9 °C 13.6 °C 1004.6 hPa NNW 11.1 km/h 20.9 km/h 59% 0.0 mm 0 W/m2
23:03 21.9 °C 13.6 °C 1004.3 hPa North 13.4 km/h 23.3 km/h 59% 0.0 mm 0 W/m2
23:08 21.9 °C 13.6 °C 1004.3 hPa North 9.7 km/h 23.3 km/h 59% 0.0 mm 0 W/m2
23:13 21.8 °C 13.7 °C 1004.3 hPa North 12.2 km/h 19.5 km/h 60% 0.0 mm 0 W/m2
23:18 21.7 °C 13.6 °C 1003.9 hPa North 12.2 km/h 23.3 km/h 60% 0.0 mm 0 W/m2
23:23 21.8 °C 13.7 °C 1003.6 hPa NNE 14.8 km/h 24.5 km/h 60% 0.0 mm 0 W/m2
23:28 21.8 °C 13.9 °C 1003.6 hPa North 14.8 km/h 25.6 km/h 61% 0.0 mm 0 W/m2
23:33 21.8 °C 13.9 °C 1003.3 hPa NNW 15.8 km/h 25.6 km/h 61% 0.0 mm 0 W/m2
23:38 21.7 °C 14.1 °C 1003.3 hPa North 13.4 km/h 27.0 km/h 62% 0.0 mm 0 W/m2
23:43 21.7 °C 14.1 °C 1002.9 hPa North 18.3 km/h 27.0 km/h 62% 0.0 mm 0 W/m2
23:48 21.8 °C 14.2 °C 1002.9 hPa North 20.9 km/h 31.7 km/h 62% 0.0 mm 0 W/m2
23:53 21.8 °C 14.2 °C 1002.9 hPa North 18.3 km/h 34.3 km/h 62% 0.0 mm 0 W/m2
23:58 21.9 °C 14.3 °C 1002.9 hPa North 12.2 km/h 34.3 km/h 62% 0.0 mm 0 W/m2
Northern Hawkes Bay. New Zealand Historic Data
Compliments of Weather Underground - 2.25 mb